Latest Weather Observations for Mount Magnet Airport

IDW60801

Issued at 7:32 am WST Sunday 29 March 2015 (issued every 30 minutes, with the page automatically refreshed every 10 minutes)

About weather observations | Map of weather stations | Latest weather observations for WA | Other Formats
Station Details ID: 007600 Name: MOUNT MAGNET AERO Lat: -28.12 Lon: 117.84 Height: 407.0 m
Data from the previous 72 hours. | See also: Recent months at Mount Magnet Airport
Date/Time
WST
Temp
°C
App
Temp
°C
Dew
Point
Rel
Hum
%
Delta-T
°C
Wind Press
QNH
hPa
Press
MSL
hPa
Rain
since 9 am
mm
Dir
 
Spd
km/h
Gust
km/h
Spd
kts
Gust
kts
29/07:30am 19.5 17.4 11.3 59 4.6 E 13 17 7 9 1020.3 1017.8 0.0
29/07:00am 18.5 18.9 11.1 62 4.1 CALM 0 7 0 4 1020.2 1017.7 0.0
29/06:30am 16.9 17.1 10.5 66 3.5 CALM 0 6 0 3 1019.9 1017.3 0.0
29/06:00am 16.6 15.5 10.5 67 3.3 E 7 9 4 5 1019.5 1016.9 0.0
29/05:30am 16.6 15.3 10.0 65 3.5 ENE 7 9 4 5 1019.2 1016.6 0.0
29/05:00am 16.8 16.6 9.2 61 4.0 CALM 0 0 0 0 1018.9 1016.4 0.0
29/04:30am 17.1 15.7 8.8 58 4.4 ESE 6 6 3 3 1018.8 1016.3 0.0
29/04:00am 17.4 16.3 8.5 56 4.7 ESE 4 9 2 5 1018.5 1016.0 0.0
29/03:30am 17.3 15.6 8.2 55 4.7 ESE 7 7 4 4 1018.5 1016.0 0.0
29/03:00am 17.9 15.3 7.9 52 5.2 SE 11 15 6 8 1018.6 1016.1 0.0
29/02:30am 18.7 17.4 7.8 49 5.7 SSW 4 6 2 3 1018.4 1015.9 0.0
29/02:00am 18.7 16.9 7.8 49 5.7 SW 7 9 4 5 1018.4 1015.9 0.0
29/01:30am 19.0 17.5 8.6 51 5.5 SE 6 9 3 5 1018.6 1016.1 0.0
29/01:00am 18.7 16.4 8.9 53 5.2 NE 11 15 6 8 1018.8 1016.3 0.0
29/12:30am 19.4 18.2 9.6 53 5.3 N 6 7 3 4 1018.3 1015.8 0.0
29/12:00am 19.7 17.7 8.7 49 5.9 N 9 9 5 5 1018.6 1016.1 0.0
 
Date/Time
WST
Temp
°C
App
Temp
°C
Dew
Point
Rel
Hum
%
Delta-T
°C
Wind Press
QNH
hPa
Press
MSL
hPa
Rain
since 9 am
mm
Dir
 
Spd
km/h
Gust
km/h
Spd
kts
Gust
kts
28/11:30pm 20.0 19.6 8.4 47 6.2 CALM 0 0 0 0 1018.8 1016.3 0.0
28/11:00pm 20.5 19.5 7.5 43 6.8 ENE 2 7 1 4 1018.8 1016.3 0.0
28/10:30pm 21.3 18.7 6.0 37 7.8 SSE 9 11 5 6 1019.1 1016.5 0.0
28/10:00pm 22.3 20.1 6.1 35 8.3 SW 7 9 4 5 1019.2 1016.6 0.0
28/09:30pm 22.6 19.9 5.5 33 8.7 SW 9 9 5 5 1019.3 1016.7 0.0
28/09:00pm 23.1 20.5 6.0 33 8.8 SW 9 11 5 6 1019.2 1016.6 0.0
28/08:30pm 23.8 21.1 5.7 31 9.4 SW 9 11 5 6 1018.9 1016.4 0.0
28/08:00pm 24.7 21.7 6.0 30 9.8 SSW 11 13 6 7 1018.5 1016.0 0.0
28/07:30pm 25.4 22.4 6.1 29 10.2 SSW 11 13 6 7 1018.1 1015.6 0.0
28/07:00pm 26.2 23.3 6.3 28 10.5 SSW 11 13 6 7 1017.8 1015.2 0.0
28/06:30pm 27.2 24.3 6.6 27 11.0 SSW 11 13 6 7 1017.5 1014.9 0.0
28/06:00pm 28.0 24.8 6.7 26 11.5 S 13 17 7 9 1017.3 1014.7 0.0
28/05:30pm 28.2 25.8 6.9 26 11.5 SW 9 15 5 8 1017.1 1014.5 0.0
28/05:00pm 28.5 26.1 7.1 26 11.6 SSE 9 19 5 10 1017.0 1014.4 0.0
28/04:30pm 28.9 25.9 7.5 26 11.8 SW 13 20 7 11 1017.0 1014.4 0.0
28/04:00pm 28.7 24.6 7.9 27 11.5 SW 19 24 10 13 1017.0 1014.4 0.0
28/03:30pm 28.9 26.5 8.6 28 11.4 SE 11 19 6 10 1016.9 1014.3 0.0
28/03:00pm 28.4 25.4 9.2 30 10.8 SSE 15 22 8 12 1017.1 1014.5 0.0
28/02:30pm 28.8 26.6 9.5 30 11.0 S 11 24 6 13 1017.3 1014.7 0.0
28/02:00pm 27.6 25.0 9.4 32 10.2 SW 13 19 7 10 1017.6 1015.0 0.0
28/01:30pm 28.7 26.4 10.4 32 10.5 SSW 13 20 7 11 1017.8 1015.2 0.0
28/01:00pm 28.2 26.5 9.9 32 10.4 SSW 9 19 5 10 1018.2 1015.7 0.0
28/12:30pm 27.7 25.1 9.5 32 10.3 SSW 13 22 7 12 1018.6 1016.1 0.0
28/12:00pm 27.1 23.8 9.5 33 9.9 S 17 28 9 15 1019.2 1016.6 0.0
28/11:30am 27.3 24.5 10.1 34 9.8 S 15 24 8 13 1019.5 1016.9 0.0
28/11:00am 26.3 23.4 9.6 35 9.4 SSW 15 24 8 13 1019.8 1017.2 0.0
28/10:30am 26.2 23.4 11.5 40 8.5 SSE 17 20 9 11 1020.1 1017.5 0.0
28/10:00am 25.4 22.3 12.3 44 7.6 S 20 26 11 14 1020.1 1017.5 0.0
28/09:30am 24.1 21.5 13.3 51 6.4 S 19 24 10 13 1020.2 1017.7 0.0
28/09:00am 23.6 21.8 13.2 52 6.1 S 15 24 8 13 1020.1 1017.5 0.0
28/08:30am 22.0 21.2 14.1 61 4.7 SSW 11 15 6 8 1019.9 1017.3 0.0
28/08:00am 20.8 20.2 14.5 67 3.7 SW 11 15 6 8 1019.7 1017.1 0.0
28/07:30am 19.9 19.7 14.7 72 3.1 SW 9 11 5 6 1019.5 1016.9 0.0
28/07:00am 18.8 18.7 14.9 78 2.3 WSW 9 11 5 6 1019.2 1016.6 0.0
28/06:30am 18.2 17.8 15.1 82 1.8 W 11 11 6 6 1018.8 1016.3 0.0
28/06:00am 18.1 17.7 15.2 83 1.7 WSW 11 13 6 7 1018.5 1016.0 0.0
28/05:30am 18.4 18.4 15.3 82 1.9 W 9 11 5 6 1018.2 1015.7 0.0
28/05:00am 18.7 18.4 15.4 81 2.0 WNW 11 11 6 6 1018.0 1015.5 0.0
28/04:30am 18.3 18.5 15.7 85 1.6 W 9 11 5 6 1017.8 1015.2 0.0
28/04:00am 18.6 19.3 15.7 83 1.7 W 6 7 3 4 1017.7 1015.1 0.0
28/03:30am 18.7 19.3 15.9 84 1.7 NNW 7 9 4 5 1017.6 1015.0 0.0
28/03:00am 18.7 19.0 15.9 84 1.7 N 9 11 5 6 1017.7 1015.1 0.0
28/02:30am 18.7 19.3 15.8 83 1.7 NNE 7 9 4 5 1017.9 1015.3 0.0
28/02:00am 19.6 20.3 15.5 77 2.5 N 6 7 3 4 1018.1 1015.6 0.0
28/01:30am 20.1 20.9 14.9 72 3.1 WSW 4 7 2 4 1018.1 1015.6 0.0
28/01:00am 20.5 20.5 15.1 71 3.2 WSW 9 11 5 6 1018.3 1015.8 0.0
28/12:30am 21.1 21.1 15.2 69 3.6 WSW 9 11 5 6 1018.4 1015.9 0.0
28/12:00am 21.3 21.4 15.4 69 3.6 WSW 9 11 5 6 1018.5 1016.0 0.0
 
Date/Time
WST
Temp
°C
App
Temp
°C
Dew
Point
Rel
Hum
%
Delta-T
°C
Wind Press
QNH
hPa
Press
MSL
hPa
Rain
since 9 am
mm
Dir
 
Spd
km/h
Gust
km/h
Spd
kts
Gust
kts
27/11:30pm 21.4 21.7 15.0 67 3.8 NW 7 9 4 5 1018.6 1016.1 0.0
27/11:00pm 21.3 21.8 14.9 67 3.8 NW 6 7 3 4 1018.8 1016.3 0.0
27/10:30pm 21.2 20.4 15.1 68 3.7 WNW 13 19 7 10 1018.8 1016.3 0.0
27/10:00pm 20.6 20.4 15.8 74 2.9 N 11 15 6 8 1018.9 1016.4 0.0
27/09:30pm 20.6 21.1 15.6 73 3.0 NNE 7 9 4 5 1019.1 1016.5 0.0
27/09:00pm 20.8 20.4 15.1 70 3.4 N 11 15 6 8 1019.1 1016.5 0.0
27/08:30pm 21.4 20.3 14.3 64 4.2 N 13 19 7 10 1018.9 1016.4 0.0
27/08:00pm 21.5 20.7 15.1 67 3.9 NNW 13 17 7 9 1018.7 1016.2 0.0
27/07:30pm 21.1 21.4 15.9 72 3.2 NNE 9 13 5 7 1018.4 1015.9 0.0
27/07:00pm 21.5 20.7 15.1 67 3.9 ENE 13 17 7 9 1018.0 1015.5 0.0
27/06:30pm 21.5 20.1 15.6 69 3.6 N 17 20 9 11 1017.6 1015.0 0.0
27/06:00pm 23.1 18.9 14.7 59 5.1 NW 30 46 16 25 1017.6 1015.0 0.0
27/05:59pm 23.8 19.7 13.9 54 5.9 NW 28 46 15 25 1017.5 1014.9 0.0
27/05:30pm 26.5 24.7 13.3 44 7.9 SSE 15 20 8 11 1016.8 1014.2 0.0
27/05:00pm 26.9 23.9 12.5 40 8.5 S 20 24 11 13 1016.6 1014.0 0.0
27/04:30pm 28.2 27.1 12.1 37 9.5 NW 9 17 5 9 1016.4 1013.9 0.0
27/04:00pm 29.0 28.0 12.4 36 9.9 NW 9 20 5 11 1016.6 1014.0 0.0
27/03:30pm 28.3 27.3 12.2 37 9.5 ENE 9 13 5 7 1016.7 1014.1 0.0
27/03:00pm 27.7 25.8 11.7 37 9.4 NNW 13 22 7 12 1017.1 1014.5 0.0
27/02:30pm 27.5 26.3 11.5 37 9.3 N 9 17 5 9 1017.4 1014.8 0.0
27/02:00pm 27.4 25.4 11.4 37 9.3 NNE 13 17 7 9 1017.9 1015.3 0.0
27/01:30pm 27.3 26.6 11.3 37 9.3 E 6 9 3 5 1018.3 1015.8 0.0
27/01:00pm 27.0 25.0 11.5 38 9.0 N 13 17 7 9 1018.7 1016.2 0.0
27/12:30pm 25.7 23.6 11.1 40 8.4 NNW 13 20 7 11 1019.2 1016.6 0.0
27/12:00pm 25.3 23.1 10.7 40 8.3 NNE 13 20 7 11 1019.5 1016.9 0.0
27/11:30am 24.6 23.1 10.5 41 8.0 N 9 15 5 8 1020.0 1017.4 0.0
27/11:00am 24.3 22.9 10.9 43 7.6 NE 9 15 5 8 1020.4 1017.9 0.0
27/10:30am 23.2 22.1 10.6 45 7.1 NNE 7 11 4 6 1020.6 1018.1 0.0
27/10:00am 22.7 22.0 11.4 49 6.4 ENE 6 9 3 5 1020.8 1018.3 0.0
27/09:30am 22.2 22.6 11.3 50 6.2 CALM 0 0 0 0 1021.1 1018.6 0.0
27/09:00am 21.5 20.8 11.5 53 5.7 ENE 6 9 3 5 1021.1 1018.6 0.0
27/08:30am 20.5 19.2 11.4 56 5.1 ENE 9 13 5 7 1020.9 1018.4 0.0
27/08:00am 20.5 19.6 11.2 55 5.2 NE 7 11 4 6 1020.9 1018.4 0.0
27/07:30am 20.3 19.4 11.5 57 5.0 ESE 7 9 4 5 1020.8 1018.3 0.0
27/07:00am 19.2 18.3 12.5 65 3.8 ENE 9 11 5 6 1020.8 1018.3 0.0
27/06:30am 19.0 18.4 12.3 65 3.8 E 7 9 4 5 1020.7 1018.2 0.0
27/06:00am 19.4 20.0 11.9 62 4.2 CALM 0 0 0 0 1021.0 1018.5 0.0
27/05:30am 19.8 20.5 12.1 61 4.4 CALM 0 0 0 0 1020.5 1018.0 0.0
27/05:00am 20.3 19.4 10.7 54 5.3 ESE 6 7 3 4 1020.2 1017.7 0.0
27/04:30am 20.4 18.3 11.1 55 5.2 NE 13 17 7 9 1019.9 1017.3 0.0
27/04:00am 20.6 19.5 10.7 53 5.5 NNE 7 9 4 5 1020.0 1017.4 0.0
27/03:30am 20.8 19.6 10.3 51 5.8 NE 7 11 4 6 1019.9 1017.3 0.0
27/03:00am 21.0 19.0 10.2 50 6.0 ENE 11 15 6 8 1019.9 1017.3 0.0
27/02:30am 21.0 20.1 10.5 51 5.8 NE 6 9 3 5 1020.4 1017.9 0.0
27/02:00am 21.2 20.0 10.4 50 6.0 NE 7 11 4 6 1020.8 1018.3 0.0
27/01:30am 21.4 19.8 10.3 49 6.2 NNE 9 15 5 8 1021.1 1018.6 0.0
27/01:00am 21.5 19.5 10.0 48 6.3 NNE 11 15 6 8 1021.2 1018.7 0.0
27/12:30am 21.3 18.9 10.2 49 6.1 NE 13 15 7 8 1021.3 1018.8 0.0
27/12:00am 21.3 19.7 10.2 49 6.1 ENE 9 13 5 7 1021.7 1019.1 0.0
 
Date/Time
WST
Temp
°C
App
Temp
°C
Dew
Point
Rel
Hum
%
Delta-T
°C
Wind Press
QNH
hPa
Press
MSL
hPa
Rain
since 9 am
mm
Dir
 
Spd
km/h
Gust
km/h
Spd
kts
Gust
kts
26/11:30pm 21.6 19.1 9.8 47 6.5 ENE 13 17 7 9 1021.5 1019.0 0.0
26/11:00pm 21.7 19.3 9.9 47 6.5 ENE 13 17 7 9 1021.7 1019.1 0.0
26/10:30pm 21.9 19.9 10.1 47 6.5 ENE 11 15 6 8 1022.0 1019.4 0.0
26/10:00pm 22.1 19.8 10.3 47 6.5 ENE 13 17 7 9 1022.0 1019.4 0.0
26/09:30pm 22.5 19.4 10.3 46 6.8 E 17 20 9 11 1022.0 1019.4 0.0
26/09:00pm 22.8 19.7 10.3 45 7.0 E 17 20 9 11 1021.9 1019.3 0.0
26/08:30pm 23.2 20.7 10.9 46 7.0 ESE 15 19 8 10 1021.8 1019.2 0.0
26/08:00pm 24.0 22.3 11.3 45 7.2 NE 11 15 6 8 1021.5 1019.0 0.0
26/07:30pm 24.5 22.9 11.5 44 7.5 NE 11 15 6 8 1021.4 1018.9 0.0
26/07:00pm 25.0 22.5 11.2 42 7.9 ENE 15 20 8 11 1020.8 1018.3 0.0
26/06:30pm 25.3 23.1 10.7 40 8.3 NE 13 19 7 10 1020.6 1018.1 0.0
26/06:00pm 25.8 22.7 10.4 38 8.7 NE 17 22 9 12 1020.4 1017.9 0.0
26/05:30pm 26.3 23.1 10.0 36 9.2 NNE 17 20 9 11 1020.4 1017.9 0.0
26/05:00pm 26.6 23.4 9.9 35 9.4 NE 17 30 9 16 1020.2 1017.7 0.0
26/04:30pm 27.0 23.4 9.8 34 9.7 NE 19 26 10 14 1020.0 1017.4 0.0
26/04:00pm 27.3 23.0 9.2 32 10.1 NNE 22 32 12 17 1020.2 1017.7 0.0
26/03:30pm 27.5 23.2 9.3 32 10.2 NNE 22 33 12 18 1020.3 1017.8 0.0
26/03:00pm 27.4 22.8 8.3 30 10.5 NE 22 35 12 19 1020.5 1018.0 0.0
26/02:30pm 27.9 23.7 8.2 29 10.9 NE 20 32 11 17 1020.9 1018.4 0.0
26/02:00pm 26.8 21.4 7.8 30 10.3 NNE 26 37 14 20 1021.1 1018.6 0.0
26/01:30pm 27.9 23.2 7.7 28 11.1 NE 22 39 12 21 1021.2 1018.7 0.0
26/01:00pm 27.2 21.7 7.6 29 10.7 ENE 26 35 14 19 1021.1 1018.6 0.0
26/12:30pm 26.6 21.0 7.1 29 10.5 NE 26 37 14 20 1021.5 1019.0 0.0
26/12:00pm 26.4 20.0 6.9 29 10.4 ENE 30 43 16 23 1021.8 1019.2 0.0
26/11:30am 25.6 19.1 6.7 30 10.1 NE 30 41 16 22 1022.4 1019.8 0.0
26/11:00am 24.8 18.7 6.5 31 9.6 NE 28 39 15 21 1022.9 1020.4 0.0
26/10:30am 24.0 17.9 6.7 33 9.1 NE 28 41 15 22 1023.2 1020.7 0.0
26/10:00am 23.8 17.0 7.0 34 8.9 NE 32 41 17 22 1023.2 1020.7 0.0
26/09:30am 22.5 17.0 7.5 38 8.0 ENE 26 35 14 19 1023.7 1021.2 0.0
26/09:00am 21.2 15.9 8.5 44 6.8 ENE 26 35 14 19 1023.5 1021.0 0.0
26/08:30am 20.1 16.2 9.4 50 5.8 E 20 28 11 15 1023.6 1021.1 0.0
26/08:00am 18.8 16.0 10.1 57 4.7 E 15 20 8 11 1023.7 1021.2 0.0

Other Formats:

Comma delimited format used in spreadsheet applications
http://www.bom.gov.au/fwo/IDW60801/IDW60801.94429.axf

JavaScript Object Notation format (JSON) in row-major order
http://www.bom.gov.au/fwo/IDW60801/IDW60801.94429.json